Time;durP1;ratioP1;P1;durP2;ratioP2;P2;SDS_P1;SDS_P2;PMS_P1;PMS_P2;Temp;Humidity;BMP_temperature;BMP_pressure;BME280_temperature;BME280_humidity;BME280_pressure;Samples;Min_cycle;Max_cycle;Signal;HPM_P1;HPM_P2
2023/04/25 00:01:19;;;;;;;4.88;1.48;;;;;;;;;;6215378;23;20008;-78
2023/04/25 00:03:45;;;;;;;5.70;1.63;;;;;;;;;;6212813;23;20008;-78
2023/04/25 00:06:12;;;;;;;3.47;1.38;;;;;;;;;;6241985;23;20011;-79
2023/04/25 00:08:38;;;;;;;4.03;1.40;;;;;;;;;;6215368;23;20004;-78
2023/04/25 00:11:03;;;;;;;5.20;1.88;;;;;;;;;;6244026;23;20115;-79
2023/04/25 00:13:29;;;;;;;4.45;1.90;;;;;;;;;;6215716;23;20346;-79
2023/04/25 00:15:56;;;;;;;4.45;1.42;;;;;;;;;;6216387;23;20385;-79
2023/04/25 00:18:21;;;;;;;4.32;1.40;;;;;;;;;;6216998;23;20004;-79
2023/04/25 00:20:47;;;;;;;2.92;1.23;;;;;;;;;;6243033;23;20335;-79
2023/04/25 00:23:17;;;;;;;2.53;1.50;;;;;;;;;;6215571;23;20099;-79
2023/04/25 00:25:48;;;;;;;3.08;1.38;;;;;;;;;;6243350;23;20008;-78
2023/04/25 00:28:14;;;;;;;4.57;1.70;;;;;;;;;;6243296;23;20000;-79
2023/04/25 00:30:41;;;;;;;5.95;1.73;;;;;;;;;;6244673;23;20058;-79
2023/04/25 00:33:06;;;;;;;6.05;1.60;;;;;;;;;;6212517;23;20004;-79
2023/04/25 00:35:32;;;;;;;6.43;1.98;;;;;;;;;;6242226;23;20334;-79
2023/04/25 00:37:57;;;;;;;5.60;1.77;;;;;;;;;;6241763;23;20007;-78
2023/04/25 00:40:23;;;;;;;4.40;1.63;;;;;;;;;;6244797;23;20012;-79
2023/04/25 00:42:49;;;;;;;7.00;1.90;;;;;;;;;;6241961;23;20044;-78
2023/04/25 00:45:15;;;;;;;2.97;1.50;;;;;;;;;;6241065;23;20012;-79
2023/04/25 00:47:41;;;;;;;5.53;1.70;;;;;;;;;;6216391;23;20012;-79
2023/04/25 00:50:07;;;;;;;6.95;1.70;;;;;;;;;;6215391;23;20369;-78
2023/04/25 00:52:33;;;;;;;4.13;1.80;;;;;;;;;;6243377;23;20099;-79
2023/04/25 00:54:59;;;;;;;5.03;1.60;;;;;;;;;;6217207;23;20008;-78
2023/04/25 00:57:25;;;;;;;4.35;1.45;;;;;;;;;;6215501;23;20007;-79
2023/04/25 00:59:51;;;;;;;6.43;1.60;;;;;;;;;;6213889;23;20031;-78
2023/04/25 01:02:17;;;;;;;5.03;1.80;;;;;;;;;;6241515;23;20371;-79
2023/04/25 01:04:42;;;;;;;8.05;2.00;;;;;;;;;;6243796;23;20035;-78
2023/04/25 01:07:09;;;;;;;5.68;1.70;;;;;;;;;;6244340;23;20004;-79
2023/04/25 01:09:35;;;;;;;5.35;1.83;;;;;;;;;;6242896;23;20007;-79
2023/04/25 01:12:01;;;;;;;3.38;1.48;;;;;;;;;;6243395;23;20004;-79
2023/04/25 01:14:27;;;;;;;4.57;1.70;;;;;;;;;;6214623;23;20004;-79
2023/04/25 01:16:52;;;;;;;3.70;1.60;;;;;;;;;;6244250;23;20001;-79
2023/04/25 01:19:19;;;;;;;6.32;1.80;;;;;;;;;;6214869;23;20007;-78
2023/04/25 01:21:45;;;;;;;4.00;1.73;;;;;;;;;;6242728;23;20004;-79
2023/04/25 01:24:10;;;;;;;4.22;1.67;;;;;;;;;;6241230;23;20396;-79
2023/04/25 01:26:36;;;;;;;4.35;1.90;;;;;;;;;;6242572;23;20012;-78
2023/04/25 01:29:04;;;;;;;4.55;1.73;;;;;;;;;;6215616;23;20004;-79
2023/04/25 01:31:29;;;;;;;5.72;1.98;;;;;;;;;;6214373;23;20496;-79
2023/04/25 01:33:55;;;;;;;4.88;1.77;;;;;;;;;;6242721;23;20008;-78
2023/04/25 01:36:21;;;;;;;4.60;1.63;;;;;;;;;;6241991;23;20011;-79
2023/04/25 01:38:47;;;;;;;5.28;1.75;;;;;;;;;;6217446;23;20015;-79
2023/04/25 01:41:14;;;;;;;5.43;2.00;;;;;;;;;;6245425;23;20000;-79
2023/04/25 01:43:39;;;;;;;6.68;1.85;;;;;;;;;;6243372;23;20007;-75
2023/04/25 01:46:05;;;;;;;4.93;1.98;;;;;;;;;;6214271;23;20015;-75
2023/04/25 01:48:30;;;;;;;5.15;1.75;;;;;;;;;;6242471;23;20008;-77
2023/04/25 01:50:55;;;;;;;6.45;1.65;;;;;;;;;;6243591;23;20008;-76
2023/04/25 01:53:22;;;;;;;6.20;1.88;;;;;;;;;;6216860;23;20051;-75
2023/04/25 01:55:47;;;;;;;6.47;2.03;;;;;;;;;;6214361;23;20008;-75
2023/04/25 01:58:13;;;;;;;4.97;2.30;;;;;;;;;;6216152;23;20011;-77
2023/04/25 02:00:39;;;;;;;7.05;1.95;;;;;;;;;;6215326;23;20012;-75
2023/04/25 02:03:05;;;;;;;4.57;1.58;;;;;;;;;;6242200;23;20000;-76
2023/04/25 02:05:36;;;;;;;5.07;1.80;;;;;;;;;;6240729;23;20008;-76
2023/04/25 02:08:02;;;;;;;7.20;2.28;;;;;;;;;;6243132;23;20005;-76
2023/04/25 02:10:27;;;;;;;4.13;2.10;;;;;;;;;;6242483;23;20070;-76
2023/04/25 02:12:52;;;;;;;6.20;2.15;;;;;;;;;;6241285;23;20012;-76
2023/04/25 02:15:18;;;;;;;4.63;1.77;;;;;;;;;;6216683;23;20000;-75
2023/04/25 02:17:44;;;;;;;7.20;2.28;;;;;;;;;;6243675;23;20004;-75
2023/04/25 02:20:10;;;;;;;6.43;2.40;;;;;;;;;;6243250;23;20078;-75
2023/04/25 02:22:36;;;;;;;7.15;2.30;;;;;;;;;;6212968;23;20346;-76
2023/04/25 02:25:04;;;;;;;5.68;2.03;;;;;;;;;;6240605;23;20030;-75
2023/04/25 02:27:30;;;;;;;5.75;2.55;;;;;;;;;;6213298;23;20012;-76
2023/04/25 02:29:55;;;;;;;7.03;2.65;;;;;;;;;;6241698;23;20377;-76
2023/04/25 02:32:21;;;;;;;4.47;2.03;;;;;;;;;;6187727;23;20008;-76
2023/04/25 02:34:46;;;;;;;6.90;2.25;;;;;;;;;;6215390;23;20004;-75
2023/04/25 02:37:11;;;;;;;5.70;2.45;;;;;;;;;;6243717;23;20049;-75
2023/04/25 02:39:37;;;;;;;7.13;2.20;;;;;;;;;;6214997;23;20720;-75
2023/04/25 02:42:02;;;;;;;6.53;2.42;;;;;;;;;;6240476;23;20004;-76
2023/04/25 02:44:28;;;;;;;8.15;2.50;;;;;;;;;;6244374;23;20079;-76
2023/04/25 02:46:53;;;;;;;7.55;2.28;;;;;;;;;;6240792;23;20401;-75
2023/04/25 02:49:18;;;;;;;5.32;2.15;;;;;;;;;;6241628;23;20426;-76
2023/04/25 02:51:44;;;;;;;5.60;2.10;;;;;;;;;;6239563;23;20008;-75
2023/04/25 02:54:09;;;;;;;8.25;2.42;;;;;;;;;;6214613;23;20008;-75
2023/04/25 02:56:35;;;;;;;6.18;2.65;;;;;;;;;;6242704;23;20007;-75
2023/04/25 02:59:00;;;;;;;5.90;2.40;;;;;;;;;;6217234;23;20004;-76
2023/04/25 03:01:25;;;;;;;6.20;2.38;;;;;;;;;;6215554;23;20529;-75
2023/04/25 03:03:51;;;;;;;8.30;2.65;;;;;;;;;;6216145;23;20422;-76
2023/04/25 03:06:16;;;;;;;9.60;2.80;;;;;;;;;;6244866;23;20030;-75
2023/04/25 03:08:41;;;;;;;6.97;2.30;;;;;;;;;;6243722;23;20000;-76
2023/04/25 03:11:07;;;;;;;10.27;2.40;;;;;;;;;;6242795;23;20004;-75
2023/04/25 03:13:32;;;;;;;8.00;2.30;;;;;;;;;;6244399;23;20000;-75
2023/04/25 03:15:57;;;;;;;5.43;2.17;;;;;;;;;;6190415;23;20004;-75
2023/04/25 03:18:23;;;;;;;7.55;2.47;;;;;;;;;;6215479;23;20012;-76
2023/04/25 03:20:48;;;;;;;6.70;2.22;;;;;;;;;;6241258;23;20389;-77
2023/04/25 03:23:14;;;;;;;7.70;2.38;;;;;;;;;;6214396;23;19996;-75
2023/04/25 03:25:39;;;;;;;5.68;2.28;;;;;;;;;;6244019;23;20011;-75
2023/04/25 03:28:04;;;;;;;4.38;2.30;;;;;;;;;;6217481;23;20015;-75
2023/04/25 03:30:30;;;;;;;7.20;2.45;;;;;;;;;;6217807;23;20079;-75
2023/04/25 03:32:55;;;;;;;6.47;2.67;;;;;;;;;;6217643;23;20011;-75
2023/04/25 03:35:20;;;;;;;6.78;2.72;;;;;;;;;;6215427;23;20050;-75
2023/04/25 03:37:46;;;;;;;6.53;2.33;;;;;;;;;;6217621;23;20032;-75
2023/04/25 03:40:11;;;;;;;5.35;2.40;;;;;;;;;;6244831;23;20082;-76
2023/04/25 03:42:37;;;;;;;6.47;2.30;;;;;;;;;;6241855;23;20015;-75
2023/04/25 03:45:03;;;;;;;5.93;2.35;;;;;;;;;;6217087;23;20023;-75
2023/04/25 03:47:28;;;;;;;4.43;2.00;;;;;;;;;;6216108;23;20476;-75
2023/04/25 03:49:53;;;;;;;6.47;2.40;;;;;;;;;;6215862;23;20016;-75
2023/04/25 03:52:19;;;;;;;7.35;2.58;;;;;;;;;;6242800;23;20011;-75
2023/04/25 03:54:44;;;;;;;7.32;2.40;;;;;;;;;;6243587;23;20000;-76
2023/04/25 03:57:10;;;;;;;8.55;2.70;;;;;;;;;;6216297;23;20000;-75
2023/04/25 03:59:35;;;;;;;5.65;2.20;;;;;;;;;;6243176;22;20377;-76
2023/04/25 04:02:01;;;;;;;4.57;2.22;;;;;;;;;;6214471;23;20484;-76
2023/04/25 04:04:26;;;;;;;8.13;2.40;;;;;;;;;;6241797;23;20004;-76
2023/04/25 04:06:52;;;;;;;5.97;2.40;;;;;;;;;;6214453;23;20008;-76
2023/04/25 04:09:18;;;;;;;7.63;2.42;;;;;;;;;;6240585;23;20034;-77
2023/04/25 04:11:43;;;;;;;6.00;2.55;;;;;;;;;;6212810;23;20008;-75
2023/04/25 04:14:10;;;;;;;8.40;2.75;;;;;;;;;;6243509;23;20482;-75
2023/04/25 04:16:35;;;;;;;7.35;2.72;;;;;;;;;;6213148;23;20319;-76
2023/04/25 04:19:01;;;;;;;7.75;2.75;;;;;;;;;;6211712;23;20019;-76
2023/04/25 04:21:27;;;;;;;7.60;2.55;;;;;;;;;;6239456;23;20004;-76
2023/04/25 04:23:52;;;;;;;5.68;2.22;;;;;;;;;;6240602;23;20028;-75
2023/04/25 04:26:18;;;;;;;4.82;2.15;;;;;;;;;;6239923;23;20011;-76
2023/04/25 04:28:43;;;;;;;8.40;2.75;;;;;;;;;;6212225;23;20008;-76
2023/04/25 04:31:12;;;;;;;5.43;2.22;;;;;;;;;;6240361;23;20015;-75
2023/04/25 04:33:37;;;;;;;10.35;3.22;;;;;;;;;;6241832;23;20000;-76
2023/04/25 04:36:04;;;;;;;6.05;2.55;;;;;;;;;;6242043;23;20087;-75
2023/04/25 04:38:30;;;;;;;6.70;2.15;;;;;;;;;;6240694;23;20066;-75
2023/04/25 04:40:55;;;;;;;7.05;2.22;;;;;;;;;;6243367;23;20445;-75
2023/04/25 04:43:22;;;;;;;8.52;2.30;;;;;;;;;;6216111;23;20008;-76
2023/04/25 04:45:49;;;;;;;9.40;2.40;;;;;;;;;;6241308;23;20014;-76
2023/04/25 04:48:15;;;;;;;4.93;2.10;;;;;;;;;;6213199;23;20004;-76
2023/04/25 04:50:44;;;;;;;9.18;2.38;;;;;;;;;;6243577;23;20066;-76
2023/04/25 04:53:10;;;;;;;5.10;2.05;;;;;;;;;;6213863;23;20118;-76
2023/04/25 04:55:35;;;;;;;6.45;2.22;;;;;;;;;;6215664;23;20036;-75
2023/04/25 04:58:01;;;;;;;8.13;2.35;;;;;;;;;;6240106;23;20016;-75
2023/04/25 05:00:27;;;;;;;6.53;2.13;;;;;;;;;;6213394;22;20016;-77
2023/04/25 05:02:52;;;;;;;4.70;1.88;;;;;;;;;;6239316;23;20003;-77
2023/04/25 05:05:17;;;;;;;6.20;2.35;;;;;;;;;;6242336;23;20079;-76
2023/04/25 05:07:43;;;;;;;6.80;2.30;;;;;;;;;;6241523;23;20008;-75
2023/04/25 05:10:08;;;;;;;5.05;2.25;;;;;;;;;;6215603;23;20000;-76
2023/04/25 05:12:33;;;;;;;4.60;2.00;;;;;;;;;;6242842;23;20088;-75
2023/04/25 05:15:00;;;;;;;6.63;2.03;;;;;;;;;;6216503;23;20008;-76
2023/04/25 05:17:25;;;;;;;5.95;2.20;;;;;;;;;;6216608;23;19997;-75
2023/04/25 05:19:50;;;;;;;4.95;2.00;;;;;;;;;;6242033;23;20000;-76
2023/04/25 05:22:16;;;;;;;5.95;2.28;;;;;;;;;;6217012;23;20004;-75
2023/04/25 05:24:41;;;;;;;10.93;1.85;;;;;;;;;;6244071;23;20053;-76
2023/04/25 05:27:06;;;;;;;7.32;2.20;;;;;;;;;;6243086;23;20422;-75
2023/04/25 05:29:32;;;;;;;3.88;1.58;;;;;;;;;;6243047;23;20004;-76
2023/04/25 05:31:57;;;;;;;8.05;1.85;;;;;;;;;;6214948;23;20286;-76
2023/04/25 05:34:22;;;;;;;5.55;1.92;;;;;;;;;;6243540;23;20066;-75
2023/04/25 05:36:48;;;;;;;5.88;2.03;;;;;;;;;;6215400;23;20326;-75
2023/04/25 05:39:16;;;;;;;5.25;2.30;;;;;;;;;;6242995;23;20004;-75
2023/04/25 05:41:41;;;;;;;4.18;2.17;;;;;;;;;;6243653;23;20087;-75
2023/04/25 05:44:07;;;;;;;7.13;1.92;;;;;;;;;;6216872;23;20036;-75
2023/04/25 05:46:32;;;;;;;5.32;2.05;;;;;;;;;;6240993;23;20008;-75
2023/04/25 05:48:58;;;;;;;6.75;2.10;;;;;;;;;;6242073;23;20035;-76
2023/04/25 05:51:23;;;;;;;6.00;2.13;;;;;;;;;;6240646;23;20098;-75
2023/04/25 05:53:48;;;;;;;4.72;1.98;;;;;;;;;;6214835;23;20083;-75
2023/04/25 05:56:14;;;;;;;4.95;2.00;;;;;;;;;;6241683;23;20054;-75
2023/04/25 05:58:40;;;;;;;6.43;2.20;;;;;;;;;;6242919;22;20004;-75
2023/04/25 06:01:05;;;;;;;4.68;1.98;;;;;;;;;;6242437;23;20007;-76
2023/04/25 06:03:30;;;;;;;6.38;2.28;;;;;;;;;;6242559;23;20594;-77
2023/04/25 06:05:56;;;;;;;3.30;1.83;;;;;;;;;;6240415;23;20004;-75
2023/04/25 06:08:21;;;;;;;7.85;2.22;;;;;;;;;;6241913;23;20011;-75
2023/04/25 06:10:46;;;;;;;5.47;1.77;;;;;;;;;;6242888;23;20008;-75
2023/04/25 06:13:12;;;;;;;6.40;2.17;;;;;;;;;;6243328;23;20471;-75
2023/04/25 06:15:37;;;;;;;5.20;2.40;;;;;;;;;;6216183;23;20058;-75
2023/04/25 06:18:03;;;;;;;6.32;1.90;;;;;;;;;;6240531;23;20011;-75
2023/04/25 06:20:28;;;;;;;4.47;1.92;;;;;;;;;;6214777;23;20384;-76
2023/04/25 06:22:54;;;;;;;6.25;2.00;;;;;;;;;;6243605;23;20079;-75
2023/04/25 06:25:20;;;;;;;6.90;2.10;;;;;;;;;;6245401;23;20000;-75
2023/04/25 06:27:45;;;;;;;4.93;1.75;;;;;;;;;;6216331;23;20007;-76
2023/04/25 06:30:11;;;;;;;5.47;2.17;;;;;;;;;;6244742;23;20481;-75
2023/04/25 06:32:37;;;;;;;4.28;1.63;;;;;;;;;;6215350;23;20042;-75
2023/04/25 06:35:03;;;;;;;6.25;1.98;;;;;;;;;;6243378;23;20009;-76
2023/04/25 06:37:29;;;;;;;5.95;1.83;;;;;;;;;;6241159;23;20063;-76
2023/04/25 06:39:54;;;;;;;3.63;1.60;;;;;;;;;;6243358;23;20011;-75
2023/04/25 06:42:19;;;;;;;5.70;2.38;;;;;;;;;;6244721;23;20004;-75
2023/04/25 06:44:45;;;;;;;5.35;1.90;;;;;;;;;;6243945;23;20000;-75
2023/04/25 06:47:10;;;;;;;3.65;1.40;;;;;;;;;;6243741;23;20011;-75
2023/04/25 06:49:36;;;;;;;6.20;1.65;;;;;;;;;;6243168;23;20000;-75
2023/04/25 06:52:01;;;;;;;4.72;1.50;;;;;;;;;;6216794;23;20004;-75
2023/04/25 06:54:29;;;;;;;3.92;1.48;;;;;;;;;;6214816;23;20008;-75
2023/04/25 06:56:54;;;;;;;3.17;1.30;;;;;;;;;;6243315;23;20004;-75
2023/04/25 06:59:20;;;;;;;5.13;1.35;;;;;;;;;;6243274;22;20015;-76
2023/04/25 07:01:45;;;;;;;3.70;1.20;;;;;;;;;;6217270;23;20000;-75
2023/04/25 07:04:11;;;;;;;5.40;1.27;;;;;;;;;;6243583;23;20078;-75
2023/04/25 07:06:42;;;;;;;4.93;0.98;;;;;;;;;;6242865;23;20380;-76
2023/04/25 07:09:08;;;;;;;4.90;1.20;;;;;;;;;;6214389;23;20015;-76
2023/04/25 07:11:34;;;;;;;4.22;1.30;;;;;;;;;;6242970;23;20036;-75
2023/04/25 07:13:59;;;;;;;4.95;1.60;;;;;;;;;;6190823;23;20438;-76
2023/04/25 07:16:24;;;;;;;8.13;1.50;;;;;;;;;;6245282;23;20015;-76
2023/04/25 07:18:50;;;;;;;9.98;1.10;;;;;;;;;;6243142;23;20381;-75
2023/04/25 07:21:15;;;;;;;4.57;1.20;;;;;;;;;;6245911;23;20438;-76
2023/04/25 07:23:40;;;;;;;3.20;1.10;;;;;;;;;;6213407;23;20426;-75
2023/04/25 07:26:06;;;;;;;9.25;1.23;;;;;;;;;;6189838;23;20012;-75
2023/04/25 07:28:31;;;;;;;5.50;0.88;;;;;;;;;;6242761;23;20000;-76
2023/04/25 07:30:58;;;;;;;4.65;1.20;;;;;;;;;;6217202;23;20004;-76
2023/04/25 07:33:23;;;;;;;4.07;1.00;;;;;;;;;;6243959;23;20083;-75
2023/04/25 07:35:48;;;;;;;7.18;1.08;;;;;;;;;;6214118;23;20032;-75
2023/04/25 07:38:14;;;;;;;4.78;1.13;;;;;;;;;;6216078;23;20311;-75
2023/04/25 07:40:39;;;;;;;6.68;1.40;;;;;;;;;;6243684;23;20308;-75
2023/04/25 07:43:05;;;;;;;3.67;1.00;;;;;;;;;;6217383;23;20083;-76
2023/04/25 07:45:30;;;;;;;5.88;1.17;;;;;;;;;;6243541;23;19996;-76
2023/04/25 07:47:55;;;;;;;3.80;1.05;;;;;;;;;;6243249;23;20330;-76
2023/04/25 07:50:21;;;;;;;6.80;1.30;;;;;;;;;;6243891;23;20000;-76
2023/04/25 07:52:46;;;;;;;7.53;1.38;;;;;;;;;;6244428;23;20006;-76
2023/04/25 07:55:12;;;;;;;6.15;1.23;;;;;;;;;;6242870;23;20007;-75
2023/04/25 07:57:38;;;;;;;4.03;1.08;;;;;;;;;;6244152;23;20035;-75
2023/04/25 08:00:04;;;;;;;5.90;1.35;;;;;;;;;;6217273;23;20008;-75
2023/04/25 08:02:30;;;;;;;5.53;1.23;;;;;;;;;;6242830;23;20438;-76
2023/04/25 08:04:55;;;;;;;5.78;1.15;;;;;;;;;;6242787;23;20006;-76
2023/04/25 08:07:20;;;;;;;5.97;1.05;;;;;;;;;;6243127;23;20004;-75
2023/04/25 08:09:46;;;;;;;5.10;1.23;;;;;;;;;;6243869;23;20019;-76
2023/04/25 08:12:11;;;;;;;7.18;1.20;;;;;;;;;;6242217;23;20004;-75
2023/04/25 08:14:37;;;;;;;3.20;1.33;;;;;;;;;;6217792;23;20320;-76
2023/04/25 08:17:05;;;;;;;4.75;1.27;;;;;;;;;;6242773;23;20003;-75
2023/04/25 08:19:31;;;;;;;5.80;1.08;;;;;;;;;;6243765;23;20004;-75
2023/04/25 08:21:56;;;;;;;6.65;1.52;;;;;;;;;;6242327;23;20053;-75
2023/04/25 08:24:22;;;;;;;3.90;0.95;;;;;;;;;;6216586;23;20010;-75
2023/04/25 08:26:48;;;;;;;5.55;1.20;;;;;;;;;;6239815;23;20311;-76
2023/04/25 08:29:13;;;;;;;5.15;1.00;;;;;;;;;;6264380;23;19996;-76
2023/04/25 08:31:38;;;;;;;4.57;1.40;;;;;;;;;;6266189;23;20052;-77
2023/04/25 08:34:04;;;;;;;5.65;1.30;;;;;;;;;;6268742;23;20007;-78
2023/04/25 08:36:29;;;;;;;6.43;1.75;;;;;;;;;;6265959;23;20069;-77
2023/04/25 08:38:55;;;;;;;7.68;1.42;;;;;;;;;;6241367;23;20004;-78
2023/04/25 08:41:22;;;;;;;7.47;1.50;;;;;;;;;;6241825;23;20016;-78
2023/04/25 08:43:48;;;;;;;6.57;1.80;;;;;;;;;;6241893;23;20078;-77
2023/04/25 08:46:17;;;;;;;6.15;1.70;;;;;;;;;;6266699;23;19988;-77
2023/04/25 08:48:45;;;;;;;9.20;2.33;;;;;;;;;;6268544;23;19988;-77
2023/04/25 08:51:18;;;;;;;7.43;1.30;;;;;;;;;;6241637;23;20004;-76
2023/04/25 08:53:44;;;;;;;;;;;;;;;;;;6267765;23;20000;-78
2023/04/25 08:56:13;;;;;;;6.32;1.15;;;;;;;;;;6268980;23;19907;-78
2023/04/25 08:58:39;;;;;;;5.53;1.00;;;;;;;;;;6268502;22;19996;-78
2023/04/25 09:01:04;;;;;;;5.60;0.98;;;;;;;;;;6268177;23;20349;-78
2023/04/25 09:03:30;;;;;;;3.92;0.80;;;;;;;;;;6266903;23;20000;-76
2023/04/25 09:05:55;;;;;;;3.67;1.08;;;;;;;;;;6262905;23;19992;-76
2023/04/25 09:08:21;;;;;;;3.05;1.00;;;;;;;;;;6263871;23;19988;-78
2023/04/25 09:10:46;;;;;;;3.50;0.80;;;;;;;;;;6268491;23;20012;-76
2023/04/25 09:13:25;;;;;;;2.80;0.70;;;;;;;;;;6241483;23;20016;-78
2023/04/25 09:15:55;;;;;;;4.00;0.80;;;;;;;;;;6267367;23;20004;-77
2023/04/25 09:18:34;;;;;;;4.40;0.80;;;;;;;;;;6267685;23;20011;-77
2023/04/25 09:21:09;;;;;;;3.35;0.85;;;;;;;;;;6242199;23;20000;-79
2023/04/25 09:23:45;;;;;;;2.97;0.70;;;;;;;;;;6269234;23;20000;-77
2023/04/25 09:26:16;;;;;;;5.25;0.70;;;;;;;;;;6268325;23;19996;-77
2023/04/25 09:28:42;;;;;;;2.10;0.73;;;;;;;;;;6242090;23;20007;-79
2023/04/25 09:31:10;;;;;;;3.28;0.98;;;;;;;;;;6267697;23;20004;-77
2023/04/25 09:33:36;;;;;;;3.35;0.90;;;;;;;;;;6242618;23;20016;-79
2023/04/25 09:36:10;;;;;;;4.57;1.08;;;;;;;;;;6240763;23;20027;-76
2023/04/25 09:38:46;;;;;;;3.78;0.80;;;;;;;;;;6268900;23;19996;-79
2023/04/25 09:41:12;;;;;;;6.63;1.05;;;;;;;;;;6243138;23;20000;-79
2023/04/25 09:43:38;;;;;;;6.72;1.00;;;;;;;;;;6268475;23;20042;-79
2023/04/25 09:46:11;;;;;;;4.57;0.95;;;;;;;;;;6243027;23;20010;-79
2023/04/25 09:48:37;;;;;;;1.90;0.80;;;;;;;;;;6268399;23;19989;-78
2023/04/25 09:51:13;;;;;;;3.03;0.90;;;;;;;;;;6242613;23;20000;-80
2023/04/25 09:53:46;;;;;;;4.40;1.17;;;;;;;;;;6268841;23;20012;-79
2023/04/25 09:56:12;;;;;;;4.93;0.90;;;;;;;;;;6269526;23;20008;-79
2023/04/25 09:58:40;;;;;;;6.90;1.10;;;;;;;;;;6270478;22;20008;-78
2023/04/25 10:01:10;;;;;;;4.32;1.00;;;;;;;;;;6243529;23;20004;-80
2023/04/25 10:03:40;;;;;;;4.32;1.20;;;;;;;;;;6268596;23;20497;-77
2023/04/25 10:06:09;;;;;;;5.03;1.10;;;;;;;;;;6266869;23;19988;-78
2023/04/25 10:08:36;;;;;;;9.60;1.27;;;;;;;;;;6243601;23;20008;-80
2023/04/25 10:11:07;;;;;;;3.65;0.90;;;;;;;;;;6270125;23;20011;-79
2023/04/25 10:13:33;;;;;;;5.22;0.80;;;;;;;;;;6240586;23;20004;-78
2023/04/25 10:16:00;;;;;;;4.57;0.82;;;;;;;;;;6243064;23;20027;-79
2023/04/25 10:18:27;;;;;;;5.40;0.80;;;;;;;;;;6240190;23;20008;-77
2023/04/25 10:20:58;;;;;;;2.90;0.85;;;;;;;;;;6217334;23;20011;-76
2023/04/25 10:23:24;;;;;;;4.03;0.90;;;;;;;;;;6261142;23;20027;-76
2023/04/25 10:25:53;;;;;;;3.28;0.85;;;;;;;;;;6259623;23;20216;-77
2023/04/25 10:28:19;;;;;;;6.35;0.90;;;;;;;;;;6260306;23;20034;-78
2023/04/25 10:30:58;;;;;;;4.45;0.90;;;;;;;;;;6260562;23;20039;-77
2023/04/25 10:33:37;;;;;;;3.47;0.88;;;;;;;;;;6260036;23;20008;-78
2023/04/25 10:36:18;;;;;;;2.47;0.68;;;;;;;;;;6260957;23;20286;-77
2023/04/25 10:38:45;;;;;;;5.43;0.93;;;;;;;;;;6232836;23;20498;-79
2023/04/25 10:41:12;;;;;;;2.33;0.70;;;;;;;;;;6258366;23;20008;-79
2023/04/25 10:43:41;;;;;;;4.15;0.70;;;;;;;;;;6261079;23;20004;-76
2023/04/25 10:46:34;;;;;;;2.13;0.80;;;;;;;;;;6236383;23;20004;-77
2023/04/25 10:49:01;;;;;;;5.50;1.00;;;;;;;;;;6232588;23;20008;-78
2023/04/25 10:51:31;;;;;;;2.08;0.77;;;;;;;;;;6262194;23;20012;-76
2023/04/25 10:53:59;;;;;;;3.50;0.90;;;;;;;;;;6264604;23;19988;-77
2023/04/25 10:56:27;;;;;;;3.83;1.05;;;;;;;;;;6261319;23;20035;-78
2023/04/25 10:59:04;;;;;;;3.42;0.75;;;;;;;;;;6260484;22;20031;-77
2023/04/25 11:01:44;;;;;;;2.35;0.70;;;;;;;;;;6234255;23;20043;-78
2023/04/25 11:04:25;;;;;;;3.40;0.85;;;;;;;;;;6235905;23;19993;-78
2023/04/25 11:07:02;;;;;;;4.13;1.23;;;;;;;;;;6259004;23;20004;-79
2023/04/25 11:09:28;;;;;;;3.17;1.10;;;;;;;;;;6258489;23;20010;-76
2023/04/25 11:11:58;;;;;;;5.63;0.98;;;;;;;;;;6231035;23;20004;-77
2023/04/25 11:14:24;;;;;;;2.50;0.70;;;;;;;;;;6256631;23;20083;-76
2023/04/25 11:16:55;;;;;;;6.25;0.60;;;;;;;;;;6233661;23;20014;-77
2023/04/25 11:19:20;;;;;;;3.00;0.70;;;;;;;;;;6232100;23;19996;-77
2023/04/25 11:21:46;;;;;;;6.05;0.77;;;;;;;;;;6257416;23;20008;-78
2023/04/25 11:24:11;;;;;;;2.28;0.80;;;;;;;;;;6256376;23;20011;-77
2023/04/25 11:26:37;;;;;;;3.03;0.80;;;;;;;;;;6232374;23;20060;-79
2023/04/25 11:29:03;;;;;;;2.72;1.00;;;;;;;;;;6232220;23;20014;-79
2023/04/25 11:31:29;;;;;;;5.05;0.68;;;;;;;;;;6257451;23;20039;-77
2023/04/25 11:33:56;;;;;;;3.58;0.60;;;;;;;;;;6230834;23;20071;-79
2023/04/25 11:36:24;;;;;;;1.48;0.50;;;;;;;;;;6256023;23;20027;-78
2023/04/25 11:38:51;;;;;;;2.13;0.68;;;;;;;;;;6257250;23;20036;-77
2023/04/25 11:41:17;;;;;;;2.00;0.60;;;;;;;;;;6230504;23;20314;-76
2023/04/25 11:43:43;;;;;;;4.07;0.50;;;;;;;;;;6256640;23;20012;-77
2023/04/25 11:46:08;;;;;;;2.60;0.52;;;;;;;;;;6256377;23;20004;-77
2023/04/25 11:48:55;;;;;;;1.05;0.45;;;;;;;;;;6229021;23;20050;-79
2023/04/25 11:51:21;;;;;;;1.77;0.47;;;;;;;;;;6255898;23;20011;-77
2023/04/25 11:53:46;;;;;;;1.48;0.50;;;;;;;;;;6255432;23;20008;-78
2023/04/25 11:56:11;;;;;;;1.35;0.70;;;;;;;;;;6253476;23;20008;-79
2023/04/25 11:59:03;;;;;;;1.90;0.60;;;;;;;;;;6254754;22;20030;-76
2023/04/25 12:01:29;;;;;;;4.20;0.50;;;;;;;;;;6252803;23;20417;-77
2023/04/25 12:03:54;;;;;;;1.58;0.50;;;;;;;;;;6253137;23;20004;-78
2023/04/25 12:06:19;;;;;;;3.72;0.70;;;;;;;;;;6225769;23;20008;-76
2023/04/25 12:09:04;;;;;;;1.75;0.70;;;;;;;;;;6227033;23;20004;-79
2023/04/25 12:11:31;;;;;;;2.05;0.73;;;;;;;;;;6249934;23;20007;-79
2023/04/25 12:14:02;;;;;;;1.85;0.70;;;;;;;;;;6224174;23;20016;-78
2023/04/25 12:16:28;;;;;;;3.80;0.80;;;;;;;;;;6255718;23;20007;-77
2023/04/25 12:18:53;;;;;;;2.97;0.70;;;;;;;;;;6227355;23;20008;-79
2023/04/25 12:21:20;;;;;;;4.78;1.02;;;;;;;;;;6228668;23;20018;-77
2023/04/25 12:23:45;;;;;;;4.03;1.05;;;;;;;;;;6227686;23;20008;-80
2023/04/25 12:26:11;;;;;;;5.05;1.00;;;;;;;;;;6251523;23;20381;-77
2023/04/25 12:28:36;;;;;;;5.07;1.27;;;;;;;;;;6225348;23;20015;-79
2023/04/25 12:31:06;;;;;;;3.17;0.85;;;;;;;;;;6252213;23;20280;-79
2023/04/25 12:33:34;;;;;;;4.60;1.00;;;;;;;;;;6248731;23;20010;-79
2023/04/25 12:36:03;;;;;;;2.65;1.20;;;;;;;;;;6225608;23;20315;-77
2023/04/25 12:38:36;;;;;;;2.67;1.17;;;;;;;;;;6253693;23;20016;-77
2023/04/25 12:41:01;;;;;;;2.72;0.80;;;;;;;;;;6227749;23;20008;-78
2023/04/25 12:43:27;;;;;;;5.40;1.00;;;;;;;;;;6227124;23;20004;-77
2023/04/25 12:45:54;;;;;;;5.95;0.90;;;;;;;;;;6254158;23;20031;-76
2023/04/25 12:48:20;;;;;;;3.55;0.70;;;;;;;;;;6254029;23;20308;-78
2023/04/25 12:50:48;;;;;;;6.20;1.17;;;;;;;;;;6255947;23;20038;-78
2023/04/25 12:53:14;;;;;;;5.82;1.17;;;;;;;;;;6230920;23;20076;-77
2023/04/25 12:55:40;;;;;;;5.38;0.93;;;;;;;;;;6260527;23;19992;-77
2023/04/25 12:58:05;;;;;;;5.45;0.80;;;;;;;;;;6233833;23;20008;-78
2023/04/25 13:00:31;;;;;;;4.03;0.95;;;;;;;;;;6253922;22;20008;-78
2023/04/25 13:02:57;;;;;;;5.05;0.90;;;;;;;;;;6225981;23;20067;-77
2023/04/25 13:05:22;;;;;;;3.63;1.00;;;;;;;;;;6229351;23;20497;-78
2023/04/25 13:07:47;;;;;;;3.65;1.08;;;;;;;;;;6222158;23;20012;-78
2023/04/25 13:10:13;;;;;;;3.70;0.95;;;;;;;;;;6221413;23;20012;-76
2023/04/25 13:12:38;;;;;;;4.47;0.80;;;;;;;;;;6224573;23;20092;-78
2023/04/25 13:15:04;;;;;;;2.15;0.93;;;;;;;;;;6249406;23;20016;-79
2023/04/25 13:17:30;;;;;;;5.13;1.38;;;;;;;;;;6223157;23;20030;-79
2023/04/25 13:19:55;;;;;;;4.28;0.90;;;;;;;;;;6252648;23;20019;-76
2023/04/25 13:22:20;;;;;;;2.78;0.82;;;;;;;;;;6220235;23;20474;-79
2023/04/25 13:24:46;;;;;;;3.97;0.80;;;;;;;;;;6253291;23;20174;-78
2023/04/25 13:27:12;;;;;;;5.45;0.93;;;;;;;;;;6249147;23;20004;-79
2023/04/25 13:29:40;;;;;;;4.90;0.80;;;;;;;;;;6254214;23;20433;-76
2023/04/25 13:32:05;;;;;;;3.53;0.88;;;;;;;;;;6251041;23;20443;-77
2023/04/25 13:34:31;;;;;;;2.58;0.77;;;;;;;;;;6257025;23;20000;-80
2023/04/25 13:36:56;;;;;;;4.80;1.02;;;;;;;;;;6260439;23;20035;-79
2023/04/25 13:39:22;;;;;;;3.75;0.88;;;;;;;;;;6235945;23;20024;-80
2023/04/25 13:41:47;;;;;;;3.75;1.10;;;;;;;;;;6233232;23;20012;-80
2023/04/25 13:44:12;;;;;;;2.22;0.88;;;;;;;;;;6235887;23;20019;-79
2023/04/25 13:46:38;;;;;;;1.85;0.82;;;;;;;;;;6261473;23;20035;-80
2023/04/25 13:49:04;;;;;;;3.30;1.10;;;;;;;;;;6238439;23;20004;-79
2023/04/25 13:51:30;;;;;;;2.70;0.80;;;;;;;;;;6259306;23;20000;-79
2023/04/25 13:53:55;;;;;;;4.65;0.90;;;;;;;;;;6238565;23;20012;-79
2023/04/25 13:56:21;;;;;;;3.10;1.00;;;;;;;;;;6237775;23;20004;-80
2023/04/25 13:58:47;;;;;;;2.97;0.90;;;;;;;;;;6264748;22;20004;-79
2023/04/25 14:01:12;;;;;;;3.08;1.10;;;;;;;;;;6260441;23;20071;-78
2023/04/25 14:03:38;;;;;;;1.98;0.75;;;;;;;;;;6261715;23;20051;-80
2023/04/25 14:06:04;;;;;;;5.75;0.93;;;;;;;;;;6264644;23;20008;-80
2023/04/25 14:08:29;;;;;;;5.72;0.90;;;;;;;;;;6262656;23;20008;-77
2023/04/25 14:10:55;;;;;;;4.40;1.73;;;;;;;;;;6264567;23;20008;-76
2023/04/25 14:13:20;;;;;;;3.05;0.90;;;;;;;;;;6260705;23;20004;-79
2023/04/25 14:15:46;;;;;;;3.95;1.20;;;;;;;;;;6259749;23;20004;-79
2023/04/25 14:18:11;;;;;;;5.85;1.00;;;;;;;;;;6231861;23;20004;-78
2023/04/25 14:20:36;;;;;;;2.28;0.95;;;;;;;;;;6258747;23;20083;-80
2023/04/25 14:23:02;;;;;;;8.02;1.27;;;;;;;;;;6252626;23;20004;-78
2023/04/25 14:25:30;;;;;;;4.82;1.20;;;;;;;;;;6254967;23;20011;-79
2023/04/25 14:27:55;;;;;;;4.72;1.15;;;;;;;;;;6228258;23;20037;-80
2023/04/25 14:30:21;;;;;;;4.20;1.35;;;;;;;;;;6226648;23;20000;-80
2023/04/25 14:32:48;;;;;;;3.15;0.80;;;;;;;;;;6229245;23;20118;-80
2023/04/25 14:35:13;;;;;;;3.40;1.10;;;;;;;;;;6229129;23;20004;-78
2023/04/25 14:37:39;;;;;;;3.05;1.10;;;;;;;;;;6256982;23;20011;-79
2023/04/25 14:40:06;;;;;;;1.95;0.70;;;;;;;;;;6255019;23;20038;-79